sensor_id;sensor_type;location;lat;lon;timestamp;pressure;altitude;pressure_sealevel;temperature;humidity
78198;BME280;67472;51.554;7.812;2023-06-10T00:01:38;100644.38;;;17.10;100.00
78198;BME280;67472;51.554;7.812;2023-06-10T00:04:26;100653.38;;;17.01;100.00
78198;BME280;67472;51.554;7.812;2023-06-10T00:07:12;100648.03;;;17.01;100.00
78198;BME280;67472;51.554;7.812;2023-06-10T00:09:59;100655.41;;;16.99;100.00
78198;BME280;67472;51.554;7.812;2023-06-10T00:12:49;100656.25;;;16.91;100.00
78198;BME280;67472;51.554;7.812;2023-06-10T00:15:36;100656.25;;;16.91;100.00
78198;BME280;67472;51.554;7.812;2023-06-10T00:18:22;100653.56;;;16.83;100.00
78198;BME280;67472;51.554;7.812;2023-06-10T00:21:10;100661.25;;;16.78;100.00
78198;BME280;67472;51.554;7.812;2023-06-10T00:23:58;100664.59;;;16.64;100.00
78198;BME280;67472;51.554;7.812;2023-06-10T00:26:48;100662.09;;;16.71;100.00
78198;BME280;67472;51.554;7.812;2023-06-10T00:29:34;100662.25;;;16.61;100.00
78198;BME280;67472;51.554;7.812;2023-06-10T00:32:21;100655.91;;;16.70;100.00
78198;BME280;67472;51.554;7.812;2023-06-10T00:35:08;100659.41;;;16.71;100.00
78198;BME280;67472;51.554;7.812;2023-06-10T00:37:55;100656.56;;;16.72;100.00
78198;BME280;67472;51.554;7.812;2023-06-10T00:40:42;100659.94;;;16.74;100.00
78198;BME280;67472;51.554;7.812;2023-06-10T00:43:30;100663.22;;;16.60;100.00
78198;BME280;67472;51.554;7.812;2023-06-10T00:46:17;100655.75;;;16.56;100.00
78198;BME280;67472;51.554;7.812;2023-06-10T00:49:04;100667.41;;;16.55;100.00
78198;BME280;67472;51.554;7.812;2023-06-10T00:51:51;100669.53;;;16.43;100.00
78198;BME280;67472;51.554;7.812;2023-06-10T00:54:39;100655.84;;;16.38;100.00
78198;BME280;67472;51.554;7.812;2023-06-10T00:57:27;100676.84;;;16.25;100.00
78198;BME280;67472;51.554;7.812;2023-06-10T01:00:15;100664.94;;;16.03;100.00
78198;BME280;67472;51.554;7.812;2023-06-10T01:03:02;100673.59;;;15.97;100.00
78198;BME280;67472;51.554;7.812;2023-06-10T01:05:57;100679.41;;;15.93;100.00
78198;BME280;67472;51.554;7.812;2023-06-10T01:08:54;100685.72;;;15.92;100.00
78198;BME280;67472;51.554;7.812;2023-06-10T01:11:47;100689.19;;;15.84;100.00
78198;BME280;67472;51.554;7.812;2023-06-10T01:14:36;100691.72;;;15.94;100.00
78198;BME280;67472;51.554;7.812;2023-06-10T01:17:24;100695.91;;;15.96;100.00
78198;BME280;67472;51.554;7.812;2023-06-10T01:20:12;100691.72;;;15.94;100.00
78198;BME280;67472;51.554;7.812;2023-06-10T01:23:00;100704.22;;;15.93;100.00
78198;BME280;67472;51.554;7.812;2023-06-10T01:25:50;100709.00;;;15.81;100.00
78198;BME280;67472;51.554;7.812;2023-06-10T01:28:44;100710.66;;;15.82;100.00
78198;BME280;67472;51.554;7.812;2023-06-10T01:31:38;100713.06;;;15.68;100.00
78198;BME280;67472;51.554;7.812;2023-06-10T01:34:28;100714.69;;;15.87;100.00
78198;BME280;67472;51.554;7.812;2023-06-10T01:37:18;100712.16;;;15.85;100.00
78198;BME280;67472;51.554;7.812;2023-06-10T01:40:08;100715.06;;;16.00;100.00
78198;BME280;67472;51.554;7.812;2023-06-10T01:42:54;100716.38;;;15.96;100.00
78198;BME280;67472;51.554;7.812;2023-06-10T01:45:41;100703.38;;;15.93;100.00
78198;BME280;67472;51.554;7.812;2023-06-10T01:48:27;100710.84;;;15.89;100.00
78198;BME280;67472;51.554;7.812;2023-06-10T01:51:13;100711.34;;;15.85;100.00
78198;BME280;67472;51.554;7.812;2023-06-10T01:54:00;100704.22;;;15.93;100.00
78198;BME280;67472;51.554;7.812;2023-06-10T01:56:47;100709.31;;;15.78;100.00
78198;BME280;67472;51.554;7.812;2023-06-10T01:59:34;100716.22;;;15.63;100.00
78198;BME280;67472;51.554;7.812;2023-06-10T02:02:22;100723.38;;;15.63;100.00
78198;BME280;67472;51.554;7.812;2023-06-10T02:05:09;100716.53;;;15.60;100.00
78198;BME280;67472;51.554;7.812;2023-06-10T02:07:56;100723.88;;;15.58;100.00
78198;BME280;67472;51.554;7.812;2023-06-10T02:10:42;100729.50;;;15.55;100.00
78198;BME280;67472;51.554;7.812;2023-06-10T02:13:30;100721.03;;;15.60;100.00
78198;BME280;67472;51.554;7.812;2023-06-10T02:16:16;100717.19;;;15.54;100.00
78198;BME280;67472;51.554;7.812;2023-06-10T02:19:03;100724.03;;;15.65;100.00
78198;BME280;67472;51.554;7.812;2023-06-10T02:21:51;100717.56;;;15.67;100.00
78198;BME280;67472;51.554;7.812;2023-06-10T02:24:38;100719.72;;;15.64;100.00
78198;BME280;67472;51.554;7.812;2023-06-10T02:27:24;100721.03;;;15.60;100.00
78198;BME280;67472;51.554;7.812;2023-06-10T02:30:13;100718.69;;;15.57;100.00
78198;BME280;67472;51.554;7.812;2023-06-10T02:33:00;100720.06;;;15.43;100.00
78198;BME280;67472;51.554;7.812;2023-06-10T02:35:47;100725.53;;;15.42;100.00
78198;BME280;67472;51.554;7.812;2023-06-10T02:38:34;100731.00;;;15.32;100.00
78198;BME280;67472;51.554;7.812;2023-06-10T02:41:21;100732.81;;;15.32;100.00
78198;BME280;67472;51.554;7.812;2023-06-10T02:44:10;100738.88;;;15.24;100.00
78198;BME280;67472;51.554;7.812;2023-06-10T02:46:58;100731.91;;;15.23;100.00
78198;BME280;67472;51.554;7.812;2023-06-10T02:49:45;100745.00;;;15.16;100.00
78198;BME280;67472;51.554;7.812;2023-06-10T02:52:32;100740.59;;;15.07;100.00
78198;BME280;67472;51.554;7.812;2023-06-10T02:55:19;100743.88;;;15.01;100.00
78198;BME280;67472;51.554;7.812;2023-06-10T02:58:11;100748.34;;;15.01;100.00
78198;BME280;67472;51.554;7.812;2023-06-10T03:00:58;100755.06;;;15.05;100.00
78198;BME280;67472;51.554;7.812;2023-06-10T03:03:50;100750.41;;;15.07;100.00
78198;BME280;67472;51.554;7.812;2023-06-10T03:06:38;100753.91;;;15.07;100.00
78198;BME280;67472;51.554;7.812;2023-06-10T03:09:37;100754.88;;;15.06;100.00
78198;BME280;67472;51.554;7.812;2023-06-10T03:12:25;100756.44;;;15.09;100.00
78198;BME280;67472;51.554;7.812;2023-06-10T03:15:11;100759.69;;;15.03;100.00
78198;BME280;67472;51.554;7.812;2023-06-10T03:17:59;100757.34;;;15.00;100.00
78198;BME280;67472;51.554;7.812;2023-06-10T03:20:49;100760.13;;;14.98;100.00
78198;BME280;67472;51.554;7.812;2023-06-10T03:23:37;100752.31;;;14.97;100.00
78198;BME280;67472;51.554;7.812;2023-06-10T03:26:23;100762.81;;;14.81;100.00
78198;BME280;67472;51.554;7.812;2023-06-10T03:29:11;100765.56;;;14.71;100.00
78198;BME280;67472;51.554;7.812;2023-06-10T03:31:57;100773.53;;;14.71;100.00
78198;BME280;67472;51.554;7.812;2023-06-10T03:34:44;100785.38;;;14.77;100.00
78198;BME280;67472;51.554;7.812;2023-06-10T03:37:34;100790.00;;;14.75;100.00
78198;BME280;67472;51.554;7.812;2023-06-10T03:40:20;100787.94;;;14.68;100.00
78198;BME280;67472;51.554;7.812;2023-06-10T03:43:07;100800.81;;;14.73;100.00
78198;BME280;67472;51.554;7.812;2023-06-10T03:45:54;100797.53;;;14.61;100.00
78198;BME280;67472;51.554;7.812;2023-06-10T03:48:40;100794.78;;;14.53;100.00
78198;BME280;67472;51.554;7.812;2023-06-10T03:51:27;100798.91;;;14.65;100.00
78198;BME280;67472;51.554;7.812;2023-06-10T03:54:15;100799.44;;;14.87;100.00
78198;BME280;67472;51.554;7.812;2023-06-10T03:57:01;100796.53;;;15.33;100.00
78198;BME280;67472;51.554;7.812;2023-06-10T03:59:49;100779.63;;;15.94;100.00
78198;BME280;67472;51.554;7.812;2023-06-10T04:02:35;100767.00;;;16.37;100.00
78198;BME280;67472;51.554;7.812;2023-06-10T04:05:22;100742.97;;;16.95;100.00
78198;BME280;67472;51.554;7.812;2023-06-10T04:08:10;100715.06;;;17.46;100.00
78198;BME280;67472;51.554;7.812;2023-06-10T04:10:58;100699.78;;;17.87;100.00
78198;BME280;67472;51.554;7.812;2023-06-10T04:13:45;100690.56;;;17.90;100.00
78198;BME280;67472;51.554;7.812;2023-06-10T04:16:32;100682.31;;;18.08;100.00
78198;BME280;67472;51.554;7.812;2023-06-10T04:19:19;100690.66;;;18.35;100.00
78198;BME280;67472;51.554;7.812;2023-06-10T04:22:06;100669.94;;;18.83;100.00
78198;BME280;67472;51.554;7.812;2023-06-10T04:24:52;100676.47;;;19.03;100.00
78198;BME280;67472;51.554;7.812;2023-06-10T04:27:40;100671.78;;;18.37;100.00
78198;BME280;67472;51.554;7.812;2023-06-10T04:30:26;100690.34;;;17.99;100.00
78198;BME280;67472;51.554;7.812;2023-06-10T04:33:12;100696.88;;;17.42;100.00
78198;BME280;67472;51.554;7.812;2023-06-10T04:35:59;100717.59;;;16.75;100.00
78198;BME280;67472;51.554;7.812;2023-06-10T04:38:49;100735.19;;;16.52;100.00
78198;BME280;67472;51.554;7.812;2023-06-10T04:41:37;100737.00;;;16.27;100.00
78198;BME280;67472;51.554;7.812;2023-06-10T04:44:25;100742.13;;;16.29;100.00
78198;BME280;67472;51.554;7.812;2023-06-10T04:47:11;100743.44;;;16.67;100.00
78198;BME280;67472;51.554;7.812;2023-06-10T04:49:57;100746.94;;;16.59;100.00
78198;BME280;67472;51.554;7.812;2023-06-10T04:52:43;100745.69;;;16.46;100.00
78198;BME280;67472;51.554;7.812;2023-06-10T04:55:32;100751.09;;;16.54;100.00
78198;BME280;67472;51.554;7.812;2023-06-10T04:58:18;100754.09;;;16.67;100.00
78198;BME280;67472;51.554;7.812;2023-06-10T05:01:06;100751.63;;;16.73;100.00
78198;BME280;67472;51.554;7.812;2023-06-10T05:03:52;100750.63;;;16.82;100.00
78198;BME280;67472;51.554;7.812;2023-06-10T05:06:39;100745.13;;;17.16;100.00
78198;BME280;67472;51.554;7.812;2023-06-10T05:09:25;100735.47;;;17.23;100.00
78198;BME280;67472;51.554;7.812;2023-06-10T05:12:12;100738.63;;;17.03;100.00
78198;BME280;67472;51.554;7.812;2023-06-10T05:14:58;100744.13;;;17.01;100.00
78198;BME280;67472;51.554;7.812;2023-06-10T05:30:16;100715.06;;;18.01;100.00
78198;BME280;67472;51.554;7.812;2023-06-10T05:33:05;100711.13;;;17.89;100.00
78198;BME280;67472;51.554;7.812;2023-06-10T05:35:55;100712.50;;;18.16;100.00
78198;BME280;67472;51.554;7.812;2023-06-10T05:38:44;100725.84;;;18.55;100.00
78198;BME280;67472;51.554;7.812;2023-06-10T05:41:31;100718.13;;;18.60;100.00
78198;BME280;67472;51.554;7.812;2023-06-10T05:44:17;100720.69;;;18.45;100.00
78198;BME280;67472;51.554;7.812;2023-06-10T05:47:05;100713.00;;;18.73;100.00
78198;BME280;67472;51.554;7.812;2023-06-10T05:49:51;100693.91;;;18.76;100.00
78198;BME280;67472;51.554;7.812;2023-06-10T05:52:37;100696.19;;;18.65;100.00
78198;BME280;67472;51.554;7.812;2023-06-10T05:55:25;100702.13;;;18.97;100.00
78198;BME280;67472;51.554;7.812;2023-06-10T05:58:11;100708.75;;;19.24;100.00
78198;BME280;67472;51.554;7.812;2023-06-10T06:00:58;100694.38;;;19.02;100.00
78198;BME280;67472;51.554;7.812;2023-06-10T06:03:46;100695.03;;;19.19;100.00
78198;BME280;67472;51.554;7.812;2023-06-10T06:06:32;100690.94;;;19.46;100.00
78198;BME280;67472;51.554;7.812;2023-06-10T06:09:18;100681.31;;;19.37;100.00
78198;BME280;67472;51.554;7.812;2023-06-10T06:12:06;100690.84;;;19.68;100.00
78198;BME280;67472;51.554;7.812;2023-06-10T06:14:52;100678.75;;;19.72;100.00
78198;BME280;67472;51.554;7.812;2023-06-10T06:17:38;100680.97;;;19.84;100.00
78198;BME280;67472;51.554;7.812;2023-06-10T06:20:26;100685.97;;;19.87;100.00
78198;BME280;67472;51.554;7.812;2023-06-10T06:23:12;100682.69;;;19.91;100.00
78198;BME280;67472;51.554;7.812;2023-06-10T06:25:59;100686.78;;;19.87;100.00
78198;BME280;67472;51.554;7.812;2023-06-10T06:28:45;100676.72;;;19.89;100.00
78198;BME280;67472;51.554;7.812;2023-06-10T06:31:31;100688.00;;;20.20;100.00
78198;BME280;67472;51.554;7.812;2023-06-10T06:34:18;100675.09;;;20.09;100.00
78198;BME280;67472;51.554;7.812;2023-06-10T06:37:06;100675.72;;;20.26;100.00
78198;BME280;67472;51.554;7.812;2023-06-10T06:39:54;100661.13;;;20.71;100.00
78198;BME280;67472;51.554;7.812;2023-06-10T06:42:41;100664.09;;;21.04;100.00
78198;BME280;67472;51.554;7.812;2023-06-10T06:45:36;100658.00;;;21.44;100.00
78198;BME280;67472;51.554;7.812;2023-06-10T06:48:22;100651.38;;;21.12;100.00
78198;BME280;67472;51.554;7.812;2023-06-10T06:51:09;100658.16;;;21.08;100.00
78198;BME280;67472;51.554;7.812;2023-06-10T06:53:56;100668.41;;;21.05;100.00
78198;BME280;67472;51.554;7.812;2023-06-10T06:56:43;100654.06;;;21.12;100.00
78198;BME280;67472;51.554;7.812;2023-06-10T06:59:30;100657.38;;;21.14;100.00
78198;BME280;67472;51.554;7.812;2023-06-10T07:02:16;100649.06;;;21.37;100.00
78198;BME280;67472;51.554;7.812;2023-06-10T07:05:04;100654.13;;;21.53;100.00
78198;BME280;67472;51.554;7.812;2023-06-10T07:07:51;100649.16;;;21.57;100.00
78198;BME280;67472;51.554;7.812;2023-06-10T07:10:41;100656.81;;;21.60;100.00
78198;BME280;67472;51.554;7.812;2023-06-10T07:13:27;100654.53;;;21.57;100.00
78198;BME280;67472;51.554;7.812;2023-06-10T07:16:14;100654.19;;;22.07;100.00
78198;BME280;67472;51.554;7.812;2023-06-10T07:19:00;100636.78;;;22.03;100.00
78198;BME280;67472;51.554;7.812;2023-06-10T07:21:46;100661.06;;;22.29;100.00
78198;BME280;67472;51.554;7.812;2023-06-10T07:24:33;100648.25;;;22.31;100.00
78198;BME280;67472;51.554;7.812;2023-06-10T07:27:21;100658.16;;;22.24;100.00
78198;BME280;67472;51.554;7.812;2023-06-10T07:30:08;100662.75;;;22.43;100.00
78198;BME280;67472;51.554;7.812;2023-06-10T07:32:54;100666.94;;;22.46;100.00
78198;BME280;67472;51.554;7.812;2023-06-10T07:35:41;100653.25;;;22.47;100.00
78198;BME280;67472;51.554;7.812;2023-06-10T07:38:28;100657.41;;;22.57;100.00
78198;BME280;67472;51.554;7.812;2023-06-10T07:41:15;100651.66;;;22.66;100.00
78198;BME280;67472;51.554;7.812;2023-06-10T07:44:04;100651.41;;;22.55;100.00
78198;BME280;67472;51.554;7.812;2023-06-10T07:46:50;100663.00;;;22.62;100.00
78198;BME280;67472;51.554;7.812;2023-06-10T07:49:37;100658.28;;;22.90;100.00
78198;BME280;67472;51.554;7.812;2023-06-10T07:52:24;100644.38;;;23.19;100.00
78198;BME280;67472;51.554;7.812;2023-06-10T07:55:11;100635.22;;;23.40;95.80
78198;BME280;67472;51.554;7.812;2023-06-10T07:57:57;100634.38;;;23.46;94.63
78198;BME280;67472;51.554;7.812;2023-06-10T08:00:46;100660.09;;;23.48;98.72
78198;BME280;67472;51.554;7.812;2023-06-10T08:03:32;100641.78;;;23.70;95.59
78198;BME280;67472;51.554;7.812;2023-06-10T08:06:19;100644.91;;;23.67;95.09
78198;BME280;67472;51.554;7.812;2023-06-10T08:09:05;100626.19;;;23.79;89.04
78198;BME280;67472;51.554;7.812;2023-06-10T08:11:52;100648.50;;;24.05;92.08
78198;BME280;67472;51.554;7.812;2023-06-10T08:14:38;100640.16;;;24.07;90.54
78198;BME280;67472;51.554;7.812;2023-06-10T08:17:26;100648.41;;;24.25;91.12
78198;BME280;67472;51.554;7.812;2023-06-10T08:20:12;100652.28;;;24.36;89.68
78198;BME280;67472;51.554;7.812;2023-06-10T08:22:59;100649.72;;;24.09;89.36
78198;BME280;67472;51.554;7.812;2023-06-10T08:25:46;100652.53;;;24.34;89.60
78198;BME280;67472;51.554;7.812;2023-06-10T08:28:32;100636.44;;;24.08;85.80
78198;BME280;67472;51.554;7.812;2023-06-10T08:31:18;100647.03;;;24.47;87.59
78198;BME280;67472;51.554;7.812;2023-06-10T08:34:06;100652.94;;;24.38;87.92
78198;BME280;67472;51.554;7.812;2023-06-10T08:36:52;100646.50;;;24.32;85.71
78198;BME280;67472;51.554;7.812;2023-06-10T08:39:40;100656.03;;;24.66;88.90
78198;BME280;67472;51.554;7.812;2023-06-10T08:42:31;100656.59;;;24.81;88.10
78198;BME280;67472;51.554;7.812;2023-06-10T08:45:22;100628.44;;;24.64;81.96
78198;BME280;67472;51.554;7.812;2023-06-10T08:48:10;100660.84;;;24.95;89.34
78198;BME280;67472;51.554;7.812;2023-06-10T08:51:00;100635.78;;;25.06;83.50
78198;BME280;67472;51.554;7.812;2023-06-10T08:53:52;100616.56;;;25.14;80.28
78198;BME280;67472;51.554;7.812;2023-06-10T08:56:40;100625.88;;;25.18;81.22
78198;BME280;67472;51.554;7.812;2023-06-10T08:59:27;100636.81;;;25.66;83.18
78198;BME280;67472;51.554;7.812;2023-06-10T09:02:14;100624.38;;;25.65;79.27
78198;BME280;67472;51.554;7.812;2023-06-10T09:05:05;100629.03;;;25.58;80.07
78198;BME280;67472;51.554;7.812;2023-06-10T09:07:57;100621.63;;;25.29;77.84
78198;BME280;67472;51.554;7.812;2023-06-10T09:10:43;100627.25;;;25.46;77.98
78198;BME280;67472;51.554;7.812;2023-06-10T09:13:30;100624.38;;;25.22;78.04
78198;BME280;67472;51.554;7.812;2023-06-10T09:16:16;100631.41;;;25.48;78.12
78198;BME280;67472;51.554;7.812;2023-06-10T09:19:03;100641.13;;;25.56;79.24
78198;BME280;67472;51.554;7.812;2023-06-10T09:21:53;100649.50;;;26.20;81.54
78198;BME280;67472;51.554;7.812;2023-06-10T09:24:41;100620.81;;;26.13;76.75
78198;BME280;67472;51.554;7.812;2023-06-10T09:27:29;100614.13;;;26.15;75.46
78198;BME280;67472;51.554;7.812;2023-06-10T09:30:24;100615.47;;;25.95;74.86
78198;BME280;67472;51.554;7.812;2023-06-10T09:33:13;100621.63;;;25.83;76.58
78198;BME280;67472;51.554;7.812;2023-06-10T09:36:02;100631.91;;;25.93;77.33
78198;BME280;67472;51.554;7.812;2023-06-10T09:38:50;100635.47;;;25.75;79.05
78198;BME280;67472;51.554;7.812;2023-06-10T09:41:40;100636.16;;;25.71;79.32
78198;BME280;67472;51.554;7.812;2023-06-10T09:44:26;100617.78;;;25.37;77.42
78198;BME280;67472;51.554;7.812;2023-06-10T09:47:19;100629.97;;;26.00;79.47
78198;BME280;67472;51.554;7.812;2023-06-10T09:50:06;100602.50;;;26.15;73.45
78198;BME280;67472;51.554;7.812;2023-06-10T09:52:52;100619.72;;;26.02;76.61
78198;BME280;67472;51.554;7.812;2023-06-10T09:55:39;100620.22;;;26.29;76.50
78198;BME280;67472;51.554;7.812;2023-06-10T09:58:35;100628.25;;;26.47;77.39
78198;BME280;67472;51.554;7.812;2023-06-10T10:01:22;100629.13;;;26.18;78.63
78198;BME280;67472;51.554;7.812;2023-06-10T10:04:09;100611.81;;;26.19;74.86
78198;BME280;67472;51.554;7.812;2023-06-10T10:06:55;100624.28;;;26.50;76.32
78198;BME280;67472;51.554;7.812;2023-06-10T10:09:42;100593.88;;;26.59;73.33
78198;BME280;67472;51.554;7.812;2023-06-10T10:12:29;100590.31;;;26.47;71.80
78198;BME280;67472;51.554;7.812;2023-06-10T10:15:17;100607.09;;;26.67;74.49
78198;BME280;67472;51.554;7.812;2023-06-10T10:18:07;100617.75;;;26.92;77.02
78198;BME280;67472;51.554;7.812;2023-06-10T10:20:55;100607.13;;;27.02;74.37
78198;BME280;67472;51.554;7.812;2023-06-10T10:23:53;100604.69;;;27.01;74.17
78198;BME280;67472;51.554;7.812;2023-06-10T10:26:39;100595.00;;;27.51;72.51
78198;BME280;67472;51.554;7.812;2023-06-10T10:29:30;100586.53;;;27.13;71.99
78198;BME280;67472;51.554;7.812;2023-06-10T10:32:21;100608.31;;;27.18;74.74
78198;BME280;67472;51.554;7.812;2023-06-10T10:35:14;100598.25;;;27.65;74.35
78198;BME280;67472;51.554;7.812;2023-06-10T10:38:02;100605.13;;;27.44;73.01
78198;BME280;67472;51.554;7.812;2023-06-10T10:40:49;100601.69;;;27.25;71.92
78198;BME280;67472;51.554;7.812;2023-06-10T10:43:36;100596.47;;;27.70;72.73
78198;BME280;67472;51.554;7.812;2023-06-10T10:46:22;100569.03;;;27.32;69.06
78198;BME280;67472;51.554;7.812;2023-06-10T10:49:10;100598.25;;;27.65;72.41
78198;BME280;67472;51.554;7.812;2023-06-10T10:51:58;100574.34;;;27.78;69.00
78198;BME280;67472;51.554;7.812;2023-06-10T10:54:46;100564.91;;;27.81;67.85
78198;BME280;67472;51.554;7.812;2023-06-10T10:57:38;100584.94;;;28.20;69.94
78198;BME280;67472;51.554;7.812;2023-06-10T11:00:29;100566.16;;;28.18;68.31
78198;BME280;67472;51.554;7.812;2023-06-10T11:03:16;100544.50;;;27.78;64.53
78198;BME280;67472;51.554;7.812;2023-06-10T11:06:12;100569.91;;;28.00;67.29
78198;BME280;67472;51.554;7.812;2023-06-10T11:08:58;100558.06;;;28.07;64.63
78198;BME280;67472;51.554;7.812;2023-06-10T11:11:50;100571.41;;;27.80;65.32
78198;BME280;67472;51.554;7.812;2023-06-10T11:14:36;100570.53;;;27.91;66.55
78198;BME280;67472;51.554;7.812;2023-06-10T11:17:24;100550.94;;;27.89;64.15
78198;BME280;67472;51.554;7.812;2023-06-10T11:20:10;100567.56;;;27.92;65.20
78198;BME280;67472;51.554;7.812;2023-06-10T11:23:02;100568.31;;;28.16;65.65
78198;BME280;67472;51.554;7.812;2023-06-10T11:25:49;100549.84;;;28.18;62.71
78198;BME280;67472;51.554;7.812;2023-06-10T11:28:35;100550.97;;;28.34;62.86
78198;BME280;67472;51.554;7.812;2023-06-10T11:31:23;100570.25;;;28.32;65.40
78198;BME280;67472;51.554;7.812;2023-06-10T11:34:10;100560.16;;;28.33;64.06
78198;BME280;67472;51.554;7.812;2023-06-10T11:36:57;100589.13;;;28.72;68.30
78198;BME280;67472;51.554;7.812;2023-06-10T11:39:46;100546.75;;;28.26;61.63
78198;BME280;67472;51.554;7.812;2023-06-10T11:42:33;100556.56;;;28.44;63.05
78198;BME280;67472;51.554;7.812;2023-06-10T11:45:24;100542.56;;;28.35;62.08
78198;BME280;67472;51.554;7.812;2023-06-10T11:48:10;100534.41;;;28.52;61.20
78198;BME280;67472;51.554;7.812;2023-06-10T11:50:57;100536.56;;;28.50;60.30
78198;BME280;67472;51.554;7.812;2023-06-10T11:53:44;100539.78;;;28.47;59.78
78198;BME280;67472;51.554;7.812;2023-06-10T11:56:32;100535.47;;;28.51;59.15
78198;BME280;67472;51.554;7.812;2023-06-10T11:59:18;100551.41;;;28.76;60.86
78198;BME280;67472;51.554;7.812;2023-06-10T12:02:15;100526.03;;;28.70;58.57
78198;BME280;67472;51.554;7.812;2023-06-10T12:05:10;100548.56;;;28.54;61.42
78198;BME280;67472;51.554;7.812;2023-06-10T12:08:10;100549.09;;;28.84;58.70
78198;BME280;67472;51.554;7.812;2023-06-10T12:10:57;100549.31;;;28.83;60.40
78198;BME280;67472;51.554;7.812;2023-06-10T12:13:48;100537.31;;;28.79;58.33
78198;BME280;67472;51.554;7.812;2023-06-10T12:16:34;100538.53;;;28.88;59.59
78198;BME280;67472;51.554;7.812;2023-06-10T12:19:20;100535.09;;;28.76;58.88
78198;BME280;67472;51.554;7.812;2023-06-10T12:22:07;100517.34;;;28.90;56.80
78198;BME280;67472;51.554;7.812;2023-06-10T12:24:57;100529.34;;;28.94;58.33
78198;BME280;67472;51.554;7.812;2023-06-10T12:27:50;100526.09;;;28.75;55.62
78198;BME280;67472;51.554;7.812;2023-06-10T12:30:39;100515.78;;;28.77;56.00
78198;BME280;67472;51.554;7.812;2023-06-10T12:33:25;100514.06;;;29.09;54.82
78198;BME280;67472;51.554;7.812;2023-06-10T12:36:16;100527.66;;;28.71;56.01
78198;BME280;67472;51.554;7.812;2023-06-10T12:39:03;100517.34;;;28.40;55.55
78198;BME280;67472;51.554;7.812;2023-06-10T12:41:51;100528.47;;;28.55;56.45
78198;BME280;67472;51.554;7.812;2023-06-10T12:44:39;100516.78;;;28.54;54.86
78198;BME280;67472;51.554;7.812;2023-06-10T12:47:32;100495.81;;;28.88;54.38
78198;BME280;67472;51.554;7.812;2023-06-10T12:50:19;100518.91;;;28.86;56.24
78198;BME280;67472;51.554;7.812;2023-06-10T12:53:07;100515.34;;;29.02;55.97
78198;BME280;67472;51.554;7.812;2023-06-10T12:55:53;100505.63;;;28.89;55.21
78198;BME280;67472;51.554;7.812;2023-06-10T12:58:41;100503.56;;;28.96;55.43
78198;BME280;67472;51.554;7.812;2023-06-10T13:01:27;100519.16;;;29.44;56.26
78198;BME280;67472;51.554;7.812;2023-06-10T13:04:16;100508.81;;;29.46;55.12
78198;BME280;67472;51.554;7.812;2023-06-10T13:07:03;100486.25;;;29.24;53.27
78198;BME280;67472;51.554;7.812;2023-06-10T13:09:49;100492.91;;;28.95;53.67
78198;BME280;67472;51.554;7.812;2023-06-10T13:12:36;100495.63;;;28.95;54.68
78198;BME280;67472;51.554;7.812;2023-06-10T13:15:22;100488.75;;;28.87;52.65
78198;BME280;67472;51.554;7.812;2023-06-10T13:18:11;100490.38;;;28.88;53.67
78198;BME280;67472;51.554;7.812;2023-06-10T13:20:59;100510.84;;;29.12;55.97
78198;BME280;67472;51.554;7.812;2023-06-10T13:23:45;100477.59;;;29.27;53.06
78198;BME280;67472;51.554;7.812;2023-06-10T13:26:32;100479.97;;;29.02;52.87
78198;BME280;67472;51.554;7.812;2023-06-10T13:29:18;100489.97;;;29.18;53.81
78198;BME280;67472;51.554;7.812;2023-06-10T13:32:05;100475.75;;;29.33;55.03
78198;BME280;67472;51.554;7.812;2023-06-10T13:34:51;100459.16;;;29.12;52.13
78198;BME280;67472;51.554;7.812;2023-06-10T13:37:40;100473.22;;;29.26;53.70
78198;BME280;67472;51.554;7.812;2023-06-10T13:40:26;100468.25;;;29.01;52.00
78198;BME280;67472;51.554;7.812;2023-06-10T13:43:12;100468.28;;;29.23;53.39
78198;BME280;67472;51.554;7.812;2023-06-10T13:45:58;100476.25;;;29.30;53.43
78198;BME280;67472;51.554;7.812;2023-06-10T13:48:44;100475.28;;;29.19;53.56
78198;BME280;67472;51.554;7.812;2023-06-10T13:51:30;100460.22;;;29.11;52.25
78198;BME280;67472;51.554;7.812;2023-06-10T13:54:19;100461.81;;;29.07;52.24
78198;BME280;67472;51.554;7.812;2023-06-10T13:57:06;100452.03;;;29.11;51.28
78198;BME280;67472;51.554;7.812;2023-06-10T13:59:54;100462.13;;;28.89;52.64
78198;BME280;67472;51.554;7.812;2023-06-10T14:02:42;100467.75;;;29.04;52.81
78198;BME280;67472;51.554;7.812;2023-06-10T14:05:28;100482.00;;;29.33;54.66
78198;BME280;67472;51.554;7.812;2023-06-10T14:08:14;100466.19;;;29.30;52.60
78198;BME280;67472;51.554;7.812;2023-06-10T14:11:03;100473.72;;;29.45;53.58
78198;BME280;67472;51.554;7.812;2023-06-10T14:13:49;100468.19;;;29.66;52.44
78198;BME280;67472;51.554;7.812;2023-06-10T14:16:36;100469.28;;;29.39;53.84
78198;BME280;67472;51.554;7.812;2023-06-10T14:19:22;100468.97;;;29.35;53.03
78198;BME280;67472;51.554;7.812;2023-06-10T14:22:09;100476.84;;;29.58;55.31
78198;BME280;67472;51.554;7.812;2023-06-10T14:24:55;100482.13;;;29.70;55.71
78198;BME280;67472;51.554;7.812;2023-06-10T14:27:43;100459.41;;;29.54;53.37
78198;BME280;67472;51.554;7.812;2023-06-10T14:30:29;100464.53;;;29.29;53.56
78198;BME280;67472;51.554;7.812;2023-06-10T14:33:15;100449.91;;;29.13;52.61
78198;BME280;67472;51.554;7.812;2023-06-10T14:36:01;100484.28;;;29.41;56.54
78198;BME280;67472;51.554;7.812;2023-06-10T14:38:48;100439.28;;;29.12;50.60
78198;BME280;67472;51.554;7.812;2023-06-10T14:41:34;100456.13;;;28.87;53.38
78198;BME280;67472;51.554;7.812;2023-06-10T14:44:22;100448.06;;;28.59;52.16